Amunt
Inicio > meteoXarxa

METEOXARXA

Anna
Ubicació
Comarca la Canal de Navarrés
Altitud (msnm) 220
Posició geogràfica 39° 1' 20.00" N, 00° 38' 41.00" W
Model Davis Vantage VUE
Presa de dades
Font de les dades MeteoAnna - Vicente Ibáñez Sarrión
retroceder este año avanzar
  2018  
  Enero  
Estadístiques. Dades diàries
Data Temperatura (ºC) Humitat (%) Pressió (hPa) Vent (km/h) Precipit. (mm)
Mínima Mitjana Màxima Mínima Mitjana Màxima Mínima Mitjana Màxima Predom. Mitjana Ràfega màxima Total Dies de pluja
Mínima Mitjana Màxima Mínima Mitjana Màxima
01-01-2018 8,3     12,8     17,3 18,0 36,0 54,0 1.027 1.030 1.032 37,0 0,0  
02-01-2018 10,4     14,2     18,0 39,0 51,5 64,0 1.028 1.030 1.031 40,0 0,0  
03-01-2018 12,2     15,8     19,3 48,0 58,5 69,0 1.026 1.029 1.031 26,0 0,0  
04-01-2018 12,9     16,0     19,1 52,0 61,5 71,0 1.020 1.024 1.027 45,0 0,0  
05-01-2018 7,9     12,8     17,7 38,0 52,0 66,0 1.006 1.013 1.019 37,0 0,0  
06-01-2018 4,7     9,1     13,5 66,0 76,0 86,0 994 1.000 1.005 26,0 3,4  
07-01-2018 3,9     8,4     12,9 39,0 60,0 81,0 997 1.002 1.007 15,0 0,0  
08-01-2018 1,3     7,7     14,1 40,0 63,0 86,0 1.007 1.011 1.015 8,0 0,0  
09-01-2018 3,3     8,4     13,6 37,0 54,5 72,0 1.015 1.018 1.020 23,0 0,2  
10-01-2018 7,5     11,1     14,7 46,0 60,0 74,0 1.016 1.017 1.018 39,0 0,2  
11-01-2018 7,8     10,6     13,4 33,0 44,0 55,0 1.018 1.021 1.023 58,0 0,0  
12-01-2018 4,4     10,1     15,8 29,0 45,0 61,0 1.021 1.023 1.025 29,0 0,0  
13-01-2018 2,0     8,4     14,8 39,0 56,0 73,0 1.016 1.019 1.022 19,0 0,0  
14-01-2018 5,3     9,0     12,7 46,0 59,0 72,0 1.016 1.019 1.021 27,0 0,0  
15-01-2018 3,9     9,7     15,4 37,0 57,5 78,0 1.021 1.024 1.027 15,0 0,0  
16-01-2018 6,7     13,4     20,1 34,0 46,5 59,0 1.022 1.025 1.027 34,0 0,0  
17-01-2018 6,8     13,9     21,1 26,0 46,0 66,0 1.020 1.023 1.026 21,0 0,0  
18-01-2018 3,7     11,1     18,4 41,0 62,5 84,0 1.020 1.023 1.026 13,0 0,0  
19-01-2018 5,0     11,7     18,3 38,0 61,0 84,0 1.018 1.021 1.023 10,0 0,0  
20-01-2018 6,0     13,1     20,1 24,0 47,0 70,0 1.021 1.023 1.025 27,0 0,0  
21-01-2018 13,2     18,0     22,8 31,0 42,5 54,0 1.023 1.025 1.026 40,0 0,0  
22-01-2018 7,6     15,9     24,3 23,0 49,0 75,0 1.022 1.024 1.025 18,0 0,0